sensor_id;sensor_type;location;lat;lon;timestamp;temperature;humidity
7970;DHT22;4030;52.362;9.206;2022-09-09T00:00:49;20.60;62.50
7970;DHT22;4030;52.362;9.206;2022-09-09T00:10:00;20.40;62.30
7970;DHT22;4030;52.362;9.206;2022-09-09T00:12:41;20.40;62.30
7970;DHT22;4030;52.362;9.206;2022-09-09T00:15:14;20.30;62.10
7970;DHT22;4030;52.362;9.206;2022-09-09T00:23:49;20.30;62.20
7970;DHT22;4030;52.362;9.206;2022-09-09T00:28:41;20.20;62.20
7970;DHT22;4030;52.362;9.206;2022-09-09T00:31:18;20.20;62.20
7970;DHT22;4030;52.362;9.206;2022-09-09T00:33:48;20.00;62.10
7970;DHT22;4030;52.362;9.206;2022-09-09T00:36:18;20.20;62.20
7970;DHT22;4030;52.362;9.206;2022-09-09T00:38:48;20.20;62.20
7970;DHT22;4030;52.362;9.206;2022-09-09T00:44:33;20.20;62.30
7970;DHT22;4030;52.362;9.206;2022-09-09T00:50:03;20.10;62.20
7970;DHT22;4030;52.362;9.206;2022-09-09T01:00:29;20.10;62.20
7970;DHT22;4030;52.362;9.206;2022-09-09T01:06:14;20.00;62.10
7970;DHT22;4030;52.362;9.206;2022-09-09T01:17:17;20.00;62.30
7970;DHT22;4030;52.362;9.206;2022-09-09T01:27:48;20.00;62.30
7970;DHT22;4030;52.362;9.206;2022-09-09T01:30:17;20.00;62.40
7970;DHT22;4030;52.362;9.206;2022-09-09T01:32:52;19.90;62.20
7970;DHT22;4030;52.362;9.206;2022-09-09T01:38:06;20.00;62.30
7970;DHT22;4030;52.362;9.206;2022-09-09T01:40:32;19.80;62.20
7970;DHT22;4030;52.362;9.206;2022-09-09T01:45:24;19.80;62.20
7970;DHT22;4030;52.362;9.206;2022-09-09T01:47:52;19.80;62.10
7970;DHT22;4030;52.362;9.206;2022-09-09T01:52:47;19.70;62.10
7970;DHT22;4030;52.362;9.206;2022-09-09T01:55:20;19.90;62.30
7970;DHT22;4030;52.362;9.206;2022-09-09T02:05:37;19.80;62.30
7970;DHT22;4030;52.362;9.206;2022-09-09T02:08:11;19.70;62.10
7970;DHT22;4030;52.362;9.206;2022-09-09T02:11:05;19.70;62.10
7970;DHT22;4030;52.362;9.206;2022-09-09T02:13:35;19.50;62.00
7970;DHT22;4030;52.362;9.206;2022-09-09T02:18:51;19.70;62.20
7970;DHT22;4030;52.362;9.206;2022-09-09T02:21:22;19.60;62.00
7970;DHT22;4030;52.362;9.206;2022-09-09T02:23:49;19.40;61.90
7970;DHT22;4030;52.362;9.206;2022-09-09T02:26:17;19.60;62.10
7970;DHT22;4030;52.362;9.206;2022-09-09T02:28:49;19.50;62.00
7970;DHT22;4030;52.362;9.206;2022-09-09T02:31:21;19.60;62.10
7970;DHT22;4030;52.362;9.206;2022-09-09T02:33:52;19.60;62.10
7970;DHT22;4030;52.362;9.206;2022-09-09T02:36:22;19.60;62.10
7970;DHT22;4030;52.362;9.206;2022-09-09T02:38:50;19.60;62.10
7970;DHT22;4030;52.362;9.206;2022-09-09T02:41:36;19.50;62.20
7970;DHT22;4030;52.362;9.206;2022-09-09T02:44:21;19.40;62.00
7970;DHT22;4030;52.362;9.206;2022-09-09T02:50:02;19.50;62.10
7970;DHT22;4030;52.362;9.206;2022-09-09T02:55:34;19.50;62.20
7970;DHT22;4030;52.362;9.206;2022-09-09T02:58:04;19.30;62.20
7970;DHT22;4030;52.362;9.206;2022-09-09T03:00:33;19.30;62.20
7970;DHT22;4030;52.362;9.206;2022-09-09T03:03:02;19.50;62.40
7970;DHT22;4030;52.362;9.206;2022-09-09T03:05:29;19.60;62.50
7970;DHT22;4030;52.362;9.206;2022-09-09T03:10:21;19.30;62.40
7970;DHT22;4030;52.362;9.206;2022-09-09T03:12:47;19.50;62.60
7970;DHT22;4030;52.362;9.206;2022-09-09T03:17:40;19.50;62.60
7970;DHT22;4030;52.362;9.206;2022-09-09T03:27:27;19.50;62.80
7970;DHT22;4030;52.362;9.206;2022-09-09T03:29:52;19.30;62.70
7970;DHT22;4030;52.362;9.206;2022-09-09T03:32:19;19.50;63.00
7970;DHT22;4030;52.362;9.206;2022-09-09T03:34:48;19.50;63.00
7970;DHT22;4030;52.362;9.206;2022-09-09T03:37:15;19.50;63.10
7970;DHT22;4030;52.362;9.206;2022-09-09T03:39:43;19.50;63.10
7970;DHT22;4030;52.362;9.206;2022-09-09T03:42:08;19.50;63.20
7970;DHT22;4030;52.362;9.206;2022-09-09T03:44:34;19.40;63.10
7970;DHT22;4030;52.362;9.206;2022-09-09T03:49:26;19.40;63.00
7970;DHT22;4030;52.362;9.206;2022-09-09T03:54:22;19.50;63.30
7970;DHT22;4030;52.362;9.206;2022-09-09T03:56:48;19.40;63.30
7970;DHT22;4030;52.362;9.206;2022-09-09T04:06:33;19.50;63.40
7970;DHT22;4030;52.362;9.206;2022-09-09T04:08:59;19.30;63.30
7970;DHT22;4030;52.362;9.206;2022-09-09T04:11:27;19.30;63.30
7970;DHT22;4030;52.362;9.206;2022-09-09T04:13:53;19.20;63.20
7970;DHT22;4030;52.362;9.206;2022-09-09T04:18:45;19.50;63.60
7970;DHT22;4030;52.362;9.206;2022-09-09T04:21:11;19.30;63.40
7970;DHT22;4030;52.362;9.206;2022-09-09T04:23:38;19.50;63.60
7970;DHT22;4030;52.362;9.206;2022-09-09T04:26:05;19.30;63.40
7970;DHT22;4030;52.362;9.206;2022-09-09T04:28:32;19.30;63.60
7970;DHT22;4030;52.362;9.206;2022-09-09T04:31:20;19.30;63.60
7970;DHT22;4030;52.362;9.206;2022-09-09T04:33:48;19.40;63.70
7970;DHT22;4030;52.362;9.206;2022-09-09T04:36:14;19.20;63.40
7970;DHT22;4030;52.362;9.206;2022-09-09T04:38:40;19.30;63.60
7970;DHT22;4030;52.362;9.206;2022-09-09T04:41:06;19.50;63.80
7970;DHT22;4030;52.362;9.206;2022-09-09T04:43:33;19.50;63.70
7970;DHT22;4030;52.362;9.206;2022-09-09T04:50:56;19.40;63.60
7970;DHT22;4030;52.362;9.206;2022-09-09T04:53:23;19.40;63.80
7970;DHT22;4030;52.362;9.206;2022-09-09T04:55:48;19.50;63.90
7970;DHT22;4030;52.362;9.206;2022-09-09T04:58:14;19.50;63.90
7970;DHT22;4030;52.362;9.206;2022-09-09T05:00:41;19.20;63.60
7970;DHT22;4030;52.362;9.206;2022-09-09T05:03:07;19.60;64.10
7970;DHT22;4030;52.362;9.206;2022-09-09T05:08:05;19.40;63.90
7970;DHT22;4030;52.362;9.206;2022-09-09T05:10:33;19.40;64.00
7970;DHT22;4030;52.362;9.206;2022-09-09T05:12:59;19.20;63.80
7970;DHT22;4030;52.362;9.206;2022-09-09T05:25:10;19.40;64.20
7970;DHT22;4030;52.362;9.206;2022-09-09T05:27:36;19.20;63.90
7970;DHT22;4030;52.362;9.206;2022-09-09T05:32:30;19.40;64.30
7970;DHT22;4030;52.362;9.206;2022-09-09T05:37:26;19.20;64.10
7970;DHT22;4030;52.362;9.206;2022-09-09T05:39:51;19.20;64.20
7970;DHT22;4030;52.362;9.206;2022-09-09T05:44:44;19.40;64.50
7970;DHT22;4030;52.362;9.206;2022-09-09T05:49:37;19.40;64.70
7970;DHT22;4030;52.362;9.206;2022-09-09T05:52:02;19.30;64.60
7970;DHT22;4030;52.362;9.206;2022-09-09T05:54:29;19.30;64.60
7970;DHT22;4030;52.362;9.206;2022-09-09T05:56:55;19.50;64.90
7970;DHT22;4030;52.362;9.206;2022-09-09T06:01:49;19.40;64.50
7970;DHT22;4030;52.362;9.206;2022-09-09T06:06:41;19.30;64.40
7970;DHT22;4030;52.362;9.206;2022-09-09T06:09:08;19.50;64.70
7970;DHT22;4030;52.362;9.206;2022-09-09T06:11:37;19.30;64.60
7970;DHT22;4030;52.362;9.206;2022-09-09T06:14:05;19.50;64.80
7970;DHT22;4030;52.362;9.206;2022-09-09T06:16:31;19.30;64.70
7970;DHT22;4030;52.362;9.206;2022-09-09T06:18:58;19.30;64.70
7970;DHT22;4030;52.362;9.206;2022-09-09T06:21:27;19.50;64.90
7970;DHT22;4030;52.362;9.206;2022-09-09T06:23:55;19.50;65.00
7970;DHT22;4030;52.362;9.206;2022-09-09T06:26:29;19.50;64.80
7970;DHT22;4030;52.362;9.206;2022-09-09T06:28:57;19.40;64.80
7970;DHT22;4030;52.362;9.206;2022-09-09T06:31:28;19.50;65.00
7970;DHT22;4030;52.362;9.206;2022-09-09T06:33:59;19.60;65.10
7970;DHT22;4030;52.362;9.206;2022-09-09T06:36:30;19.40;64.80
7970;DHT22;4030;52.362;9.206;2022-09-09T06:41:26;19.60;64.80
7970;DHT22;4030;52.362;9.206;2022-09-09T06:46:22;19.60;63.90
7970;DHT22;4030;52.362;9.206;2022-09-09T06:48:53;19.30;63.20
7970;DHT22;4030;52.362;9.206;2022-09-09T06:51:22;19.30;62.90
7970;DHT22;4030;52.362;9.206;2022-09-09T06:53:53;19.50;62.40
7970;DHT22;4030;52.362;9.206;2022-09-09T06:58:56;19.60;63.30
7970;DHT22;4030;52.362;9.206;2022-09-09T07:01:28;19.60;64.20
7970;DHT22;4030;52.362;9.206;2022-09-09T07:03:58;19.60;64.50
7970;DHT22;4030;52.362;9.206;2022-09-09T07:06:32;19.70;65.30
7970;DHT22;4030;52.362;9.206;2022-09-09T07:09:02;19.80;65.80
7970;DHT22;4030;52.362;9.206;2022-09-09T07:11:36;19.80;66.00
7970;DHT22;4030;52.362;9.206;2022-09-09T07:14:09;19.70;66.20
7970;DHT22;4030;52.362;9.206;2022-09-09T07:19:09;19.90;66.90
7970;DHT22;4030;52.362;9.206;2022-09-09T07:26:31;20.00;67.80
7970;DHT22;4030;52.362;9.206;2022-09-09T07:28:57;20.10;68.10
7970;DHT22;4030;52.362;9.206;2022-09-09T07:31:25;19.90;67.80
7970;DHT22;4030;52.362;9.206;2022-09-09T07:36:25;20.20;68.00
7970;DHT22;4030;52.362;9.206;2022-09-09T07:39:01;20.20;68.00
7970;DHT22;4030;52.362;9.206;2022-09-09T07:41:33;20.20;68.10
7970;DHT22;4030;52.362;9.206;2022-09-09T07:44:06;20.30;68.20
7970;DHT22;4030;52.362;9.206;2022-09-09T07:46:33;20.40;68.50
7970;DHT22;4030;52.362;9.206;2022-09-09T07:49:00;20.20;68.30
7970;DHT22;4030;52.362;9.206;2022-09-09T07:51:28;20.40;68.30
7970;DHT22;4030;52.362;9.206;2022-09-09T07:53:58;20.40;68.10
7970;DHT22;4030;52.362;9.206;2022-09-09T07:56:26;20.50;68.00
7970;DHT22;4030;52.362;9.206;2022-09-09T07:58:53;20.60;68.00
7970;DHT22;4030;52.362;9.206;2022-09-09T08:01:24;20.40;67.70
7970;DHT22;4030;52.362;9.206;2022-09-09T08:04:03;20.60;67.70
7970;DHT22;4030;52.362;9.206;2022-09-09T08:06:41;20.50;67.30
7970;DHT22;4030;52.362;9.206;2022-09-09T08:09:10;20.50;67.20
7970;DHT22;4030;52.362;9.206;2022-09-09T08:11:36;20.60;67.30
7970;DHT22;4030;52.362;9.206;2022-09-09T08:14:03;20.70;67.30
7970;DHT22;4030;52.362;9.206;2022-09-09T08:16:31;20.70;67.30
7970;DHT22;4030;52.362;9.206;2022-09-09T08:18:59;20.50;67.00
7970;DHT22;4030;52.362;9.206;2022-09-09T08:21:27;20.90;67.40
7970;DHT22;4030;52.362;9.206;2022-09-09T08:23:54;20.80;67.30
7970;DHT22;4030;52.362;9.206;2022-09-09T08:26:23;20.80;67.10
7970;DHT22;4030;52.362;9.206;2022-09-09T08:28:51;20.80;66.90
7970;DHT22;4030;52.362;9.206;2022-09-09T08:33:47;20.90;67.00
7970;DHT22;4030;52.362;9.206;2022-09-09T08:36:20;20.90;67.00
7970;DHT22;4030;52.362;9.206;2022-09-09T08:38:49;20.90;66.90
7970;DHT22;4030;52.362;9.206;2022-09-09T08:52:19;21.00;66.70
7970;DHT22;4030;52.362;9.206;2022-09-09T08:54:49;21.10;66.60
7970;DHT22;4030;52.362;9.206;2022-09-09T08:57:21;21.10;66.70
7970;DHT22;4030;52.362;9.206;2022-09-09T08:59:52;21.20;66.70
7970;DHT22;4030;52.362;9.206;2022-09-09T09:02:38;21.30;66.60
7970;DHT22;4030;52.362;9.206;2022-09-09T09:05:15;21.40;66.80
7970;DHT22;4030;52.362;9.206;2022-09-09T09:15:24;21.40;66.30
7970;DHT22;4030;52.362;9.206;2022-09-09T09:20:23;21.50;66.20
7970;DHT22;4030;52.362;9.206;2022-09-09T09:22:59;21.60;66.30
7970;DHT22;4030;52.362;9.206;2022-09-09T09:25:34;21.50;66.20
7970;DHT22;4030;52.362;9.206;2022-09-09T09:28:15;21.40;65.90
7970;DHT22;4030;52.362;9.206;2022-09-09T09:36:07;21.70;65.70
7970;DHT22;4030;52.362;9.206;2022-09-09T09:38:34;21.80;65.80
7970;DHT22;4030;52.362;9.206;2022-09-09T09:41:02;21.70;65.70
7970;DHT22;4030;52.362;9.206;2022-09-09T09:43:33;21.80;65.60
7970;DHT22;4030;52.362;9.206;2022-09-09T09:48:27;22.00;65.90
7970;DHT22;4030;52.362;9.206;2022-09-09T09:50:56;22.10;66.00
7970;DHT22;4030;52.362;9.206;2022-09-09T09:53:42;22.10;66.00
7970;DHT22;4030;52.362;9.206;2022-09-09T09:56:10;22.10;65.90
7970;DHT22;4030;52.362;9.206;2022-09-09T09:58:51;22.20;66.00
7970;DHT22;4030;52.362;9.206;2022-09-09T10:01:24;22.40;66.10
7970;DHT22;4030;52.362;9.206;2022-09-09T10:04:12;22.40;66.00
7970;DHT22;4030;52.362;9.206;2022-09-09T10:06:38;22.50;66.10
7970;DHT22;4030;52.362;9.206;2022-09-09T10:09:24;22.60;65.90
7970;DHT22;4030;52.362;9.206;2022-09-09T10:15:00;22.60;65.60
7970;DHT22;4030;52.362;9.206;2022-09-09T10:48:58;23.20;64.80
7970;DHT22;4030;52.362;9.206;2022-09-09T10:52:02;23.30;64.90
7970;DHT22;4030;52.362;9.206;2022-09-09T10:57:44;23.50;65.40
7970;DHT22;4030;52.362;9.206;2022-09-09T11:00:23;23.50;65.60
7970;DHT22;4030;52.362;9.206;2022-09-09T11:02:55;23.70;66.00
7970;DHT22;4030;52.362;9.206;2022-09-09T11:08:14;23.90;66.50
7970;DHT22;4030;52.362;9.206;2022-09-09T11:17:12;24.00;65.60
7970;DHT22;4030;52.362;9.206;2022-09-09T11:19:43;24.00;65.30
7970;DHT22;4030;52.362;9.206;2022-09-09T11:22:32;24.00;65.00
7970;DHT22;4030;52.362;9.206;2022-09-09T11:25:17;24.00;64.80
7970;DHT22;4030;52.362;9.206;2022-09-09T11:36:35;23.90;63.20
7970;DHT22;4030;52.362;9.206;2022-09-09T11:42:26;24.00;62.80
7970;DHT22;4030;52.362;9.206;2022-09-09T11:44:52;24.10;62.70
7970;DHT22;4030;52.362;9.206;2022-09-09T11:47:30;24.10;62.50
7970;DHT22;4030;52.362;9.206;2022-09-09T11:52:47;24.20;62.60
7970;DHT22;4030;52.362;9.206;2022-09-09T11:55:24;24.30;62.50
7970;DHT22;4030;52.362;9.206;2022-09-09T11:58:02;24.40;62.50
7970;DHT22;4030;52.362;9.206;2022-09-09T12:02:58;24.50;62.20
7970;DHT22;4030;52.362;9.206;2022-09-09T12:05:39;24.70;61.90
7970;DHT22;4030;52.362;9.206;2022-09-09T12:08:09;24.70;61.70
7970;DHT22;4030;52.362;9.206;2022-09-09T12:10:39;25.10;61.80
7970;DHT22;4030;52.362;9.206;2022-09-09T12:13:25;25.30;61.70
7970;DHT22;4030;52.362;9.206;2022-09-09T12:15:53;25.50;61.50
7970;DHT22;4030;52.362;9.206;2022-09-09T12:21:06;25.70;61.10
7970;DHT22;4030;52.362;9.206;2022-09-09T12:23:49;26.00;60.80
7970;DHT22;4030;52.362;9.206;2022-09-09T12:26:32;26.00;60.40
7970;DHT22;4030;52.362;9.206;2022-09-09T12:32:02;26.50;59.80
7970;DHT22;4030;52.362;9.206;2022-09-09T12:34:52;26.60;59.40
7970;DHT22;4030;52.362;9.206;2022-09-09T12:37:35;26.80;59.00
7970;DHT22;4030;52.362;9.206;2022-09-09T12:42:49;26.90;58.10
7970;DHT22;4030;52.362;9.206;2022-09-09T12:45:24;27.10;57.80
7970;DHT22;4030;52.362;9.206;2022-09-09T12:47:57;27.30;57.60
7970;DHT22;4030;52.362;9.206;2022-09-09T12:50:46;27.30;57.00
7970;DHT22;4030;52.362;9.206;2022-09-09T12:53:22;27.50;56.90
7970;DHT22;4030;52.362;9.206;2022-09-09T12:55:56;27.60;56.50
7970;DHT22;4030;52.362;9.206;2022-09-09T12:58:23;27.70;56.30
7970;DHT22;4030;52.362;9.206;2022-09-09T13:00:52;27.80;56.00
7970;DHT22;4030;52.362;9.206;2022-09-09T13:03:19;27.90;55.80
7970;DHT22;4030;52.362;9.206;2022-09-09T13:05:49;28.00;55.50
7970;DHT22;4030;52.362;9.206;2022-09-09T13:08:16;28.00;55.00
7970;DHT22;4030;52.362;9.206;2022-09-09T13:13:41;28.10;54.40
7970;DHT22;4030;52.362;9.206;2022-09-09T13:16:24;28.20;54.20
7970;DHT22;4030;52.362;9.206;2022-09-09T13:18:52;28.20;54.00
7970;DHT22;4030;52.362;9.206;2022-09-09T13:21:19;28.30;53.90
7970;DHT22;4030;52.362;9.206;2022-09-09T13:23:49;28.30;53.60
7970;DHT22;4030;52.362;9.206;2022-09-09T13:28:51;28.40;52.80
7970;DHT22;4030;52.362;9.206;2022-09-09T13:31:29;28.40;52.50
7970;DHT22;4030;52.362;9.206;2022-09-09T13:33:58;28.50;52.20
7970;DHT22;4030;52.362;9.206;2022-09-09T13:36:31;28.50;52.00
7970;DHT22;4030;52.362;9.206;2022-09-09T13:39:02;28.60;51.70
7970;DHT22;4030;52.362;9.206;2022-09-09T13:41:43;28.70;51.50
7970;DHT22;4030;52.362;9.206;2022-09-09T13:44:27;28.70;51.20
7970;DHT22;4030;52.362;9.206;2022-09-09T13:47:05;28.90;51.10
7970;DHT22;4030;52.362;9.206;2022-09-09T13:49:34;29.00;50.90
7970;DHT22;4030;52.362;9.206;2022-09-09T13:52:11;29.10;50.60
7970;DHT22;4030;52.362;9.206;2022-09-09T13:54:39;29.20;50.30
7970;DHT22;4030;52.362;9.206;2022-09-09T13:57:13;29.20;50.10
7970;DHT22;4030;52.362;9.206;2022-09-09T13:59:41;29.30;49.90
7970;DHT22;4030;52.362;9.206;2022-09-09T14:02:07;29.30;49.60
7970;DHT22;4030;52.362;9.206;2022-09-09T14:07:00;29.30;49.10
7970;DHT22;4030;52.362;9.206;2022-09-09T14:11:52;29.20;48.20
7970;DHT22;4030;52.362;9.206;2022-09-09T14:24:05;29.00;46.60
7970;DHT22;4030;52.362;9.206;2022-09-09T14:26:31;28.90;46.40
7970;DHT22;4030;52.362;9.206;2022-09-09T14:28:57;28.90;46.40
7970;DHT22;4030;52.362;9.206;2022-09-09T14:31:24;28.80;46.20
7970;DHT22;4030;52.362;9.206;2022-09-09T14:41:15;28.60;45.60
7970;DHT22;4030;52.362;9.206;2022-09-09T14:43:46;28.60;45.60
7970;DHT22;4030;52.362;9.206;2022-09-09T14:46:16;28.50;45.50
7970;DHT22;4030;52.362;9.206;2022-09-09T14:48:43;28.50;45.60
7970;DHT22;4030;52.362;9.206;2022-09-09T14:51:11;28.40;45.50
7970;DHT22;4030;52.362;9.206;2022-09-09T14:53:39;28.40;45.60
7970;DHT22;4030;52.362;9.206;2022-09-09T14:56:10;28.30;45.70
7970;DHT22;4030;52.362;9.206;2022-09-09T14:58:37;28.30;46.00
7970;DHT22;4030;52.362;9.206;2022-09-09T15:01:04;28.30;46.20
7970;DHT22;4030;52.362;9.206;2022-09-09T15:03:31;28.30;46.40
7970;DHT22;4030;52.362;9.206;2022-09-09T15:05:57;28.30;46.60
7970;DHT22;4030;52.362;9.206;2022-09-09T15:08:24;28.30;46.70
7970;DHT22;4030;52.362;9.206;2022-09-09T15:13:23;28.20;46.80
7970;DHT22;4030;52.362;9.206;2022-09-09T15:20:45;28.10;47.00
7970;DHT22;4030;52.362;9.206;2022-09-09T15:23:12;28.10;47.00
7970;DHT22;4030;52.362;9.206;2022-09-09T15:25:37;28.00;47.00
7970;DHT22;4030;52.362;9.206;2022-09-09T15:28:03;27.90;46.90
7970;DHT22;4030;52.362;9.206;2022-09-09T15:32:55;28.10;47.20
7970;DHT22;4030;52.362;9.206;2022-09-09T15:37:47;28.10;47.40
7970;DHT22;4030;52.362;9.206;2022-09-09T15:42:39;28.10;47.50
7970;DHT22;4030;52.362;9.206;2022-09-09T15:45:05;28.10;47.40
7970;DHT22;4030;52.362;9.206;2022-09-09T15:47:31;28.10;47.30
7970;DHT22;4030;52.362;9.206;2022-09-09T15:52:24;28.20;46.90
7970;DHT22;4030;52.362;9.206;2022-09-09T15:57:16;28.00;46.40
7970;DHT22;4030;52.362;9.206;2022-09-09T16:02:09;27.90;46.10
7970;DHT22;4030;52.362;9.206;2022-09-09T16:04:34;27.90;46.10
7970;DHT22;4030;52.362;9.206;2022-09-09T16:07:04;27.90;46.00
7970;DHT22;4030;52.362;9.206;2022-09-09T16:09:31;27.80;46.00
7970;DHT22;4030;52.362;9.206;2022-09-09T16:12:01;27.70;45.80
7970;DHT22;4030;52.362;9.206;2022-09-09T16:14:28;27.70;45.90
7970;DHT22;4030;52.362;9.206;2022-09-09T16:16:59;27.50;45.70
7970;DHT22;4030;52.362;9.206;2022-09-09T16:19:25;27.60;45.70
7970;DHT22;4030;52.362;9.206;2022-09-09T16:21:51;27.50;45.60
7970;DHT22;4030;52.362;9.206;2022-09-09T16:24:18;27.50;45.60
7970;DHT22;4030;52.362;9.206;2022-09-09T16:26:50;27.50;45.70
7970;DHT22;4030;52.362;9.206;2022-09-09T16:29:18;27.40;45.70
7970;DHT22;4030;52.362;9.206;2022-09-09T16:31:45;27.40;45.70
7970;DHT22;4030;52.362;9.206;2022-09-09T16:34:12;27.40;45.80
7970;DHT22;4030;52.362;9.206;2022-09-09T16:36:39;27.20;45.80
7970;DHT22;4030;52.362;9.206;2022-09-09T16:39:11;27.20;45.90
7970;DHT22;4030;52.362;9.206;2022-09-09T16:41:39;27.20;46.20
7970;DHT22;4030;52.362;9.206;2022-09-09T16:44:08;27.20;46.40
7970;DHT22;4030;52.362;9.206;2022-09-09T16:46:37;27.00;46.50
7970;DHT22;4030;52.362;9.206;2022-09-09T16:49:06;27.10;46.70
7970;DHT22;4030;52.362;9.206;2022-09-09T16:51:39;27.10;46.80
7970;DHT22;4030;52.362;9.206;2022-09-09T16:54:10;27.10;46.90
7970;DHT22;4030;52.362;9.206;2022-09-09T16:56:39;27.00;47.00
7970;DHT22;4030;52.362;9.206;2022-09-09T16:59:15;27.00;47.20
7970;DHT22;4030;52.362;9.206;2022-09-09T17:01:43;26.90;47.10
7970;DHT22;4030;52.362;9.206;2022-09-09T17:04:13;26.90;47.30
7970;DHT22;4030;52.362;9.206;2022-09-09T17:09:11;26.90;47.60
7970;DHT22;4030;52.362;9.206;2022-09-09T17:11:38;26.60;47.60
7970;DHT22;4030;52.362;9.206;2022-09-09T17:14:06;26.70;47.80
7970;DHT22;4030;52.362;9.206;2022-09-09T17:16:33;26.70;48.10
7970;DHT22;4030;52.362;9.206;2022-09-09T17:21:28;26.60;48.60
7970;DHT22;4030;52.362;9.206;2022-09-09T17:23:55;26.70;48.80
7970;DHT22;4030;52.362;9.206;2022-09-09T17:26:23;26.50;48.90
7970;DHT22;4030;52.362;9.206;2022-09-09T17:31:19;26.30;49.10
7970;DHT22;4030;52.362;9.206;2022-09-09T17:33:47;26.40;49.20
7970;DHT22;4030;52.362;9.206;2022-09-09T17:38:42;26.30;49.40
7970;DHT22;4030;52.362;9.206;2022-09-09T17:41:15;26.30;49.40
7970;DHT22;4030;52.362;9.206;2022-09-09T17:46:17;26.20;49.50
7970;DHT22;4030;52.362;9.206;2022-09-09T17:51:15;26.10;49.60
7970;DHT22;4030;52.362;9.206;2022-09-09T17:53:47;26.10;49.70
7970;DHT22;4030;52.362;9.206;2022-09-09T17:56:17;26.00;49.70
7970;DHT22;4030;52.362;9.206;2022-09-09T17:58:51;26.00;49.80
7970;DHT22;4030;52.362;9.206;2022-09-09T18:01:23;25.90;49.70
7970;DHT22;4030;52.362;9.206;2022-09-09T18:03:52;25.90;49.90
7970;DHT22;4030;52.362;9.206;2022-09-09T18:06:27;25.80;49.90
7970;DHT22;4030;52.362;9.206;2022-09-09T18:08:58;25.90;50.20
7970;DHT22;4030;52.362;9.206;2022-09-09T18:11:27;25.60;50.20
7970;DHT22;4030;52.362;9.206;2022-09-09T18:13:56;25.70;50.40
7970;DHT22;4030;52.362;9.206;2022-09-09T18:16:25;25.70;50.60
7970;DHT22;4030;52.362;9.206;2022-09-09T18:18:54;25.60;50.80
7970;DHT22;4030;52.362;9.206;2022-09-09T18:21:22;25.50;50.80
7970;DHT22;4030;52.362;9.206;2022-09-09T18:23:50;25.50;51.00
7970;DHT22;4030;52.362;9.206;2022-09-09T18:26:22;25.50;51.20
7970;DHT22;4030;52.362;9.206;2022-09-09T18:28:55;25.40;51.20
7970;DHT22;4030;52.362;9.206;2022-09-09T18:31:24;25.40;51.40
7970;DHT22;4030;52.362;9.206;2022-09-09T18:33:52;25.30;51.40
7970;DHT22;4030;52.362;9.206;2022-09-09T18:36:21;25.30;51.50
7970;DHT22;4030;52.362;9.206;2022-09-09T18:38:51;25.20;51.60
7970;DHT22;4030;52.362;9.206;2022-09-09T18:41:19;25.10;51.60
7970;DHT22;4030;52.362;9.206;2022-09-09T18:43:50;25.00;51.80
7970;DHT22;4030;52.362;9.206;2022-09-09T18:46:18;25.00;51.90
7970;DHT22;4030;52.362;9.206;2022-09-09T18:48:45;25.00;52.00
7970;DHT22;4030;52.362;9.206;2022-09-09T18:51:13;24.90;52.20
7970;DHT22;4030;52.362;9.206;2022-09-09T18:56:09;24.80;52.20
7970;DHT22;4030;52.362;9.206;2022-09-09T18:58:37;24.80;52.40
7970;DHT22;4030;52.362;9.206;2022-09-09T19:01:04;24.60;52.30
7970;DHT22;4030;52.362;9.206;2022-09-09T19:03:34;24.70;52.50
7970;DHT22;4030;52.362;9.206;2022-09-09T19:06:02;24.60;52.60
7970;DHT22;4030;52.362;9.206;2022-09-09T19:08:30;24.40;52.50
7970;DHT22;4030;52.362;9.206;2022-09-09T19:11:01;24.50;52.70
7970;DHT22;4030;52.362;9.206;2022-09-09T19:18:33;24.20;52.80
7970;DHT22;4030;52.362;9.206;2022-09-09T19:21:13;24.30;52.90
7970;DHT22;4030;52.362;9.206;2022-09-09T19:23:57;24.20;53.00
7970;DHT22;4030;52.362;9.206;2022-09-09T19:26:26;24.20;53.20
7970;DHT22;4030;52.362;9.206;2022-09-09T19:28:59;24.10;53.30
7970;DHT22;4030;52.362;9.206;2022-09-09T19:31:27;24.20;53.40
7970;DHT22;4030;52.362;9.206;2022-09-09T19:33:54;23.90;53.30
7970;DHT22;4030;52.362;9.206;2022-09-09T19:36:21;24.00;53.60
7970;DHT22;4030;52.362;9.206;2022-09-09T19:38:48;24.00;53.60
7970;DHT22;4030;52.362;9.206;2022-09-09T19:41:19;23.90;53.60
7970;DHT22;4030;52.362;9.206;2022-09-09T19:43:48;24.00;53.80
7970;DHT22;4030;52.362;9.206;2022-09-09T19:46:15;23.90;53.90
7970;DHT22;4030;52.362;9.206;2022-09-09T19:48:43;23.90;53.90
7970;DHT22;4030;52.362;9.206;2022-09-09T19:51:19;23.80;53.80
7970;DHT22;4030;52.362;9.206;2022-09-09T19:53:52;23.90;54.00
7970;DHT22;4030;52.362;9.206;2022-09-09T19:56:22;23.80;53.90
7970;DHT22;4030;52.362;9.206;2022-09-09T19:58:49;23.70;53.90
7970;DHT22;4030;52.362;9.206;2022-09-09T20:01:19;23.70;53.90
7970;DHT22;4030;52.362;9.206;2022-09-09T20:03:49;23.70;54.00
7970;DHT22;4030;52.362;9.206;2022-09-09T20:06:18;23.60;53.90
7970;DHT22;4030;52.362;9.206;2022-09-09T20:08:46;23.50;53.90
7970;DHT22;4030;52.362;9.206;2022-09-09T20:11:14;23.60;54.00
7970;DHT22;4030;52.362;9.206;2022-09-09T20:13:40;23.50;54.00
7970;DHT22;4030;52.362;9.206;2022-09-09T20:18:37;23.50;54.10
7970;DHT22;4030;52.362;9.206;2022-09-09T20:21:11;23.50;54.20
7970;DHT22;4030;52.362;9.206;2022-09-09T20:23:40;23.20;54.00
7970;DHT22;4030;52.362;9.206;2022-09-09T20:26:09;23.40;54.20
7970;DHT22;4030;52.362;9.206;2022-09-09T20:28:38;23.30;54.20
7970;DHT22;4030;52.362;9.206;2022-09-09T20:31:10;23.30;54.30
7970;DHT22;4030;52.362;9.206;2022-09-09T20:33:42;23.30;54.40
7970;DHT22;4030;52.362;9.206;2022-09-09T20:36:12;23.10;54.30
7970;DHT22;4030;52.362;9.206;2022-09-09T20:38:50;23.20;54.40
7970;DHT22;4030;52.362;9.206;2022-09-09T20:41:23;23.10;54.40
7970;DHT22;4030;52.362;9.206;2022-09-09T20:43:54;23.10;54.60
7970;DHT22;4030;52.362;9.206;2022-09-09T20:46:24;23.10;54.70
7970;DHT22;4030;52.362;9.206;2022-09-09T20:48:52;23.00;54.80
7970;DHT22;4030;52.362;9.206;2022-09-09T20:51:23;22.80;54.70
7970;DHT22;4030;52.362;9.206;2022-09-09T20:53:54;23.00;54.90
7970;DHT22;4030;52.362;9.206;2022-09-09T20:56:24;23.10;55.10
7970;DHT22;4030;52.362;9.206;2022-09-09T20:58:51;22.90;55.00
7970;DHT22;4030;52.362;9.206;2022-09-09T21:01:19;23.10;55.30
7970;DHT22;4030;52.362;9.206;2022-09-09T21:03:46;23.00;55.30
7970;DHT22;4030;52.362;9.206;2022-09-09T21:08:39;22.90;55.40
7970;DHT22;4030;52.362;9.206;2022-09-09T21:11:05;22.90;55.40
7970;DHT22;4030;52.362;9.206;2022-09-09T21:13:34;22.70;55.40
7970;DHT22;4030;52.362;9.206;2022-09-09T21:16:04;22.80;55.50
7970;DHT22;4030;52.362;9.206;2022-09-09T21:18:34;22.80;
7970;DHT22;4030;52.362;9.206;2022-09-09T21:21:02;22.80;55.60
7970;DHT22;4030;52.362;9.206;2022-09-09T21:23:28;22.70;55.60
7970;DHT22;4030;52.362;9.206;2022-09-09T21:25:54;22.80;55.70
7970;DHT22;4030;52.362;9.206;2022-09-09T21:30:49;22.70;55.80
7970;DHT22;4030;52.362;9.206;2022-09-09T21:33:18;22.60;55.80
7970;DHT22;4030;52.362;9.206;2022-09-09T21:35:45;22.60;55.90
7970;DHT22;4030;52.362;9.206;2022-09-09T21:38:13;22.50;55.90
7970;DHT22;4030;52.362;9.206;2022-09-09T21:40:40;22.50;55.90
7970;DHT22;4030;52.362;9.206;2022-09-09T21:43:07;22.50;55.90
7970;DHT22;4030;52.362;9.206;2022-09-09T21:45:38;22.60;56.10
7970;DHT22;4030;52.362;9.206;2022-09-09T21:48:05;22.50;56.10
7970;DHT22;4030;52.362;9.206;2022-09-09T21:50:39;22.40;56.00
7970;DHT22;4030;52.362;9.206;2022-09-09T21:53:07;22.50;56.20